Time;durP1;ratioP1;P1;durP2;ratioP2;P2;SDS_P1;SDS_P2;PMS_P1;PMS_P2;Temp;Humidity;BMP_temperature;BMP_pressure;BME280_temperature;BME280_humidity;BME280_pressure;Samples;Min_cycle;Max_cycle;Signal;HPM_P1;HPM_P2
2021/10/17 00:01:58;;;;;;;39.65;21.65;;;;;;;6.40;78.33;99821.30;1613627;86;21059;-76
2021/10/17 00:04:28;;;;;;;38.20;20.00;;;;;;;6.31;78.27;99827.13;1630528;86;21039;-75
2021/10/17 00:07:01;;;;;;;39.88;21.10;;;;;;;6.20;78.47;99818.15;1652919;85;21094;-76
2021/10/17 00:09:30;;;;;;;34.73;18.55;;;;;;;6.15;78.43;99819.00;1644022;87;21047;-74
2021/10/17 00:14:51;;;;;;;35.95;20.52;;;;;;;6.00;78.17;99816.32;1638650;87;21070;-76
2021/10/17 00:17:18;;;;;;;32.48;19.30;;;;;;;5.89;78.24;99821.84;1643704;86;21087;-77
2021/10/17 00:19:54;;;;;;;35.45;20.27;;;;;;;5.84;78.28;99818.59;1596780;89;21614;-76
2021/10/17 00:22:29;;;;;;;33.42;19.67;;;;;;;5.81;78.21;99817.79;1595594;88;21030;-75
2021/10/17 00:25:07;;;;;;;37.23;21.27;;;;;;;5.78;78.13;99815.63;1559865;89;21353;-76
2021/10/17 00:27:38;;;;;;;33.00;19.00;;;;;;;5.73;78.01;99819.75;1610864;87;21110;-77
2021/10/17 00:30:06;;;;;;;38.90;19.42;;;;;;;5.72;77.95;99823.56;1626724;87;21083;-77
2021/10/17 00:32:37;;;;;;;31.73;18.45;;;;;;;5.69;77.89;99814.02;1633797;87;21810;-76
2021/10/17 00:35:08;;;;;;;36.48;20.62;;;;;;;5.69;77.78;99819.48;1637266;87;21032;-76
2021/10/17 00:37:35;;;;;;;35.25;19.37;;;;;;;5.65;77.64;99818.93;1640416;87;21148;-77
2021/10/17 00:40:03;;;;;;;39.13;20.40;;;;;;;5.63;77.86;99818.41;1624014;87;21022;-77
2021/10/17 00:42:41;;;;;;;35.23;20.65;;;;;;;5.62;77.96;99814.86;1601543;89;21056;-76
2021/10/17 00:45:19;;;;;;;34.60;20.12;;;;;;;5.62;77.91;99812.13;1596924;86;21089;-77
2021/10/17 00:47:50;;;;;;;34.53;20.97;;;;;;;5.58;77.92;99815.95;1622936;87;21079;-77
2021/10/17 00:50:25;;;;;;;37.05;20.15;;;;;;;5.56;77.77;99811.88;1624468;87;21042;-77
2021/10/17 00:52:53;;;;;;;32.90;18.35;;;;;;;5.54;77.57;99808.60;1627409;87;21102;-75
2021/10/17 00:55:24;;;;;;;42.85;20.92;;;;;;;5.51;77.45;99812.69;1612654;87;21033;-76
2021/10/17 00:58:01;;;;;;;41.77;21.40;;;;;;;5.49;77.39;99816.28;1625436;87;21051;-77
2021/10/17 01:00:32;;;;;;;41.45;21.27;;;;;;;5.46;77.22;99819.55;1641028;86;21127;-76
2021/10/17 01:03:03;;;;;;;34.73;20.57;;;;;;;5.42;77.29;99818.48;1620717;87;21581;-75
2021/10/17 01:05:33;;;;;;;39.55;20.90;;;;;;;5.39;77.42;99820.41;1635246;86;21046;-76
2021/10/17 01:08:06;;;;;;;38.33;20.52;;;;;;;5.38;77.40;99808.65;1621408;86;21564;-76
2021/10/17 01:10:33;;;;;;;39.63;23.27;;;;;;;5.36;77.35;99817.13;1638303;87;21068;-75
2021/10/17 01:13:05;;;;;;;38.17;21.27;;;;;;;5.33;77.23;99812.22;1601388;87;21056;-76
2021/10/17 01:15:48;;;;;;;39.33;21.07;;;;;;;5.32;77.07;99812.50;1632073;87;21053;-77
2021/10/17 01:18:14;;;;;;;36.77;18.80;;;;;;;5.28;76.86;99810.87;1630937;87;21589;-76
2021/10/17 01:20:47;;;;;;;41.95;20.40;;;;;;;5.23;76.65;99812.25;1629587;87;21045;-76
2021/10/17 01:23:21;;;;;;;35.33;20.00;;;;;;;5.20;76.51;99816.91;1629235;87;21115;-76
2021/10/17 01:25:49;;;;;;;35.55;20.12;;;;;;;5.15;76.28;99805.45;1620569;87;21123;-76
2021/10/17 01:28:20;;;;;;;42.15;20.48;;;;;;;5.10;76.34;99808.19;1631328;87;21151;-75
2021/10/17 01:30:49;;;;;;;39.85;23.02;;;;;;;5.06;76.37;99813.38;1589744;87;21088;-75
2021/10/17 01:33:18;;;;;;;41.58;21.85;;;;;;;5.02;76.51;99816.38;1589135;88;21073;-76
2021/10/17 01:35:53;;;;;;;36.10;20.53;;;;;;;4.98;76.59;99809.84;1615164;87;21525;-76
2021/10/17 01:38:20;;;;;;;33.28;18.90;;;;;;;4.95;76.63;99811.20;1647194;86;21000;-77
2021/10/17 01:40:50;;;;;;;37.80;19.52;;;;;;;4.93;76.62;99807.12;1617671;86;21181;-76
2021/10/17 01:43:24;;;;;;;36.83;19.27;;;;;;;4.90;76.66;99812.56;1590347;88;21048;-76
2021/10/17 01:45:54;;;;;;;34.45;20.05;;;;;;;4.82;76.61;99810.39;1627872;87;21004;-77
2021/10/17 01:48:27;;;;;;;32.90;18.95;;;;;;;4.71;77.07;99814.49;1629668;87;21094;-76
2021/10/17 01:51:03;;;;;;;;;;;;;;;4.67;77.39;99818.05;1612115;87;21072;-76
2021/10/17 01:53:30;;;;;;;42.15;19.52;;;;;;;4.66;77.67;99821.88;1628863;87;21252;-76
2021/10/17 01:56:01;;;;;;;37.53;20.30;;;;;;;4.60;77.72;99819.15;1600267;89;21036;-76
2021/10/17 01:58:34;;;;;;;37.95;20.82;;;;;;;4.59;77.85;99820.22;1597443;89;21036;-76
2021/10/17 02:01:08;;;;;;;36.20;19.25;;;;;;;4.60;78.15;99823.78;1599870;89;21096;-76
2021/10/17 02:03:47;;;;;;;41.08;20.40;;;;;;;4.63;78.57;99821.33;1577776;89;21030;-75
2021/10/17 02:06:13;;;;;;;35.70;19.87;;;;;;;4.68;78.85;99825.13;1593247;89;21804;-75
2021/10/17 02:08:41;;;;;;;36.28;19.12;;;;;;;4.73;79.02;99827.33;1632170;87;21160;-76
2021/10/17 02:11:10;;;;;;;31.02;18.48;;;;;;;4.77;79.26;99827.61;1628644;87;21064;-75
2021/10/17 02:13:41;;;;;;;36.03;18.50;;;;;;;4.81;79.53;99830.05;1633155;86;21055;-76
2021/10/17 02:16:08;;;;;;;34.33;19.45;;;;;;;4.85;79.65;99826.22;1579423;88;21050;-76
2021/10/17 02:18:41;;;;;;;34.63;19.10;;;;;;;4.87;79.64;99832.23;1596014;88;21107;-75
2021/10/17 02:21:15;;;;;;;33.58;20.25;;;;;;;4.87;79.69;99833.06;1609577;86;21114;-75
2021/10/17 02:23:48;;;;;;;40.17;21.27;;;;;;;4.87;79.58;99831.70;1603651;86;21145;-77
2021/10/17 02:26:24;;;;;;;41.37;20.92;;;;;;;4.87;79.56;99829.50;1631502;86;20987;-76
2021/10/17 02:28:54;;;;;;;31.35;19.50;;;;;;;4.87;79.56;99834.43;1614623;85;21107;-74
2021/10/17 02:31:28;;;;;;;31.12;18.30;;;;;;;4.81;78.98;99834.14;1603820;86;21119;-75
2021/10/17 02:33:56;;;;;;;39.60;19.20;;;;;;;4.73;78.95;99837.42;1595325;88;21058;-75
2021/10/17 02:36:23;;;;;;;34.00;18.90;;;;;;;4.64;78.81;99837.14;1630459;86;21011;-74
2021/10/17 02:38:50;;;;;;;32.78;20.35;;;;;;;4.57;79.11;99835.25;1634721;86;21015;-75
2021/10/17 02:41:23;;;;;;;38.05;19.20;;;;;;;4.57;79.15;99844.80;1592376;88;21118;-74
2021/10/17 02:43:50;;;;;;;36.42;19.15;;;;;;;4.55;79.07;99837.42;1640263;86;21178;-75
2021/10/17 02:46:21;;;;;;;34.53;20.70;;;;;;;4.50;79.15;99839.61;1638473;85;21510;-76
2021/10/17 02:48:54;;;;;;;32.85;19.35;;;;;;;4.47;79.05;99832.77;1615426;86;21060;-74
2021/10/17 02:51:22;;;;;;;33.75;18.62;;;;;;;4.44;78.95;99832.48;1638141;86;21111;-75
2021/10/17 02:53:52;;;;;;;31.20;17.82;;;;;;;4.43;78.95;99832.22;1631242;86;21008;-75
2021/10/17 02:56:22;;;;;;;33.75;17.55;;;;;;;4.40;78.66;99829.51;1632586;86;21158;-76
2021/10/17 02:58:49;;;;;;;31.17;18.48;;;;;;;4.32;78.53;99832.74;1614964;87;22084;-76
2021/10/17 03:01:20;;;;;;;34.18;19.05;;;;;;;4.30;78.79;99823.47;1610219;86;21024;-76
2021/10/17 03:03:48;;;;;;;37.35;18.12;;;;;;;4.30;78.64;99830.28;1608979;86;21092;-75
2021/10/17 03:06:19;;;;;;;33.70;19.17;;;;;;;4.28;78.71;99834.39;1637123;85;21059;-76
2021/10/17 03:08:49;;;;;;;32.63;19.05;;;;;;;4.30;78.71;99824.03;1638724;86;21071;-76
2021/10/17 03:11:17;;;;;;;32.23;19.05;;;;;;;4.31;78.59;99836.57;1636330;85;21011;-76
2021/10/17 03:13:48;;;;;;;37.23;20.12;;;;;;;4.31;78.70;99833.84;1637412;85;21162;-76
2021/10/17 03:16:24;;;;;;;28.67;17.00;;;;;;;4.30;78.72;99835.74;1619036;87;21024;-76
2021/10/17 03:19:04;;;;;;;35.17;19.00;;;;;;;4.32;78.99;99843.13;1633886;87;21104;-75
2021/10/17 03:21:32;;;;;;;33.92;19.17;;;;;;;4.38;79.35;99840.66;1546504;90;21077;-77
2021/10/17 03:24:03;;;;;;;32.30;18.67;;;;;;;4.45;79.56;99843.13;1591948;89;21650;-77
2021/10/17 03:26:31;;;;;;;32.25;17.55;;;;;;;4.52;79.60;99852.98;1654832;86;21075;-75
2021/10/17 03:28:58;;;;;;;35.30;18.85;;;;;;;4.56;79.67;99842.61;1615257;87;21032;-76
2021/10/17 03:31:27;;;;;;;33.33;18.70;;;;;;;4.62;79.78;99844.23;1639334;87;21075;-76
2021/10/17 03:34:01;;;;;;;32.73;18.20;;;;;;;4.67;79.83;99843.98;1607361;89;20991;-77
2021/10/17 03:36:30;;;;;;;32.58;19.02;;;;;;;4.71;79.91;99845.06;1653627;86;21567;-74
2021/10/17 03:39:14;;;;;;;36.35;17.77;;;;;;;4.75;79.97;99847.53;1649069;86;21572;-74
2021/10/17 03:41:40;;;;;;;31.65;17.12;;;;;;;4.77;80.05;99841.26;1640856;87;21009;-76
2021/10/17 03:44:12;;;;;;;29.72;17.40;;;;;;;4.81;80.10;99842.33;1636604;87;21234;-75
2021/10/17 03:46:43;;;;;;;31.52;16.65;;;;;;;4.84;80.21;99841.81;1612669;87;21035;-75
2021/10/17 03:49:11;;;;;;;32.60;16.75;;;;;;;4.90;80.30;99840.41;1653607;86;21036;-74
2021/10/17 03:51:51;;;;;;;31.62;16.57;;;;;;;4.94;80.38;99842.34;1625997;86;21086;-74
2021/10/17 03:54:18;;;;;;;30.05;14.85;;;;;;;5.00;80.50;99840.41;1652387;86;21075;-74
2021/10/17 03:56:47;;;;;;;29.05;16.00;;;;;;;5.04;80.56;99837.95;1599141;87;21008;-74
2021/10/17 03:59:17;;;;;;;28.02;17.15;;;;;;;5.08;80.67;99845.31;1595731;86;21041;-75
2021/10/17 04:01:51;;;;;;;26.25;15.23;;;;;;;5.15;80.75;99844.23;1618109;87;21549;-75
2021/10/17 04:04:29;;;;;;;25.92;15.68;;;;;;;5.17;80.72;99837.38;1628293;86;21064;-74
2021/10/17 04:06:58;;;;;;;28.77;15.68;;;;;;;5.22;80.67;99848.87;1594487;87;21546;-75
2021/10/17 04:09:31;;;;;;;26.65;14.83;;;;;;;5.23;80.62;99845.86;1617452;87;21557;-76
2021/10/17 04:12:02;;;;;;;26.95;15.25;;;;;;;5.26;80.63;99848.58;1654378;86;21130;-76
2021/10/17 04:14:35;;;;;;;29.15;14.83;;;;;;;5.30;80.62;99851.58;1646997;86;21059;-76
2021/10/17 04:17:06;;;;;;;26.60;14.47;;;;;;;5.31;80.64;99848.56;1639871;86;21059;-76
2021/10/17 04:19:38;;;;;;;25.40;14.28;;;;;;;5.32;80.66;99850.19;1638827;86;21095;-76
2021/10/17 04:22:12;;;;;;;27.27;15.10;;;;;;;5.34;80.68;99848.58;1600388;89;21021;-76
2021/10/17 04:24:42;;;;;;;30.15;15.53;;;;;;;5.36;80.71;99856.75;1600808;89;21154;-76
2021/10/17 04:27:14;;;;;;;27.17;15.15;;;;;;;5.36;80.71;99851.29;1597340;89;21014;-76
2021/10/17 04:29:45;;;;;;;26.27;14.35;;;;;;;5.39;80.60;99852.63;1629493;87;21159;-77
2021/10/17 04:32:20;;;;;;;27.05;14.47;;;;;;;5.39;80.51;99852.63;1630434;87;21054;-76
2021/10/17 04:34:50;;;;;;;23.30;13.22;;;;;;;5.39;80.54;99855.37;1603630;88;21122;-76
2021/10/17 04:37:19;;;;;;;25.55;14.35;;;;;;;5.40;80.60;99855.66;1610362;86;21093;-75
2021/10/17 04:39:48;;;;;;;25.68;14.80;;;;;;;5.41;80.64;99856.48;1564460;90;21123;-77
2021/10/17 04:42:19;;;;;;;24.63;14.87;;;;;;;5.44;80.70;99860.02;1595603;89;21035;-76
2021/10/17 04:44:46;;;;;;;29.12;15.83;;;;;;;5.45;80.79;99859.75;1627144;87;21088;-74
2021/10/17 04:47:15;;;;;;;25.05;14.93;;;;;;;5.49;80.79;99864.11;1595350;88;21012;-77
2021/10/17 04:49:54;;;;;;;30.08;17.27;;;;;;;5.50;80.79;99864.37;1622119;85;21113;-74
2021/10/17 04:52:22;;;;;;;28.75;14.70;;;;;;;5.51;80.74;99861.90;1646414;86;21598;-74
2021/10/17 04:54:54;;;;;;;25.57;16.23;;;;;;;5.54;80.83;99868.73;1620413;86;21508;-76
2021/10/17 04:57:29;;;;;;;31.80;15.08;;;;;;;5.57;80.88;99862.71;1645922;86;21031;-77
2021/10/17 04:59:56;;;;;;;29.48;15.32;;;;;;;5.60;80.87;99867.62;1640440;86;21067;-77
2021/10/17 05:02:25;;;;;;;26.85;15.45;;;;;;;5.62;80.92;99863.23;1618561;86;21514;-75
2021/10/17 05:04:58;;;;;;;21.40;13.83;;;;;;;5.65;81.00;99866.78;1643783;86;21127;-75
2021/10/17 05:07:26;;;;;;;28.73;16.67;;;;;;;5.69;81.06;99874.17;1644297;86;21028;-77
2021/10/17 05:09:57;;;;;;;32.55;15.88;;;;;;;5.71;81.08;99869.22;1643175;86;21032;-75
2021/10/17 05:12:24;;;;;;;27.77;15.80;;;;;;;5.74;81.16;99871.95;1639860;86;21084;-75
2021/10/17 05:14:55;;;;;;;29.75;15.60;;;;;;;5.77;81.26;99878.23;1620802;86;21099;-75
2021/10/17 05:17:27;;;;;;;;;;;;;;;5.80;81.28;99879.61;1611173;86;21012;-74
2021/10/17 05:19:54;;;;;;;27.22;16.23;;;;;;;5.83;81.35;99883.94;1617575;86;20180;-75
2021/10/17 05:22:32;;;;;;;27.13;15.38;;;;;;;5.86;81.38;99878.48;1644288;86;21115;-75
2021/10/17 05:25:01;;;;;;;26.77;15.83;;;;;;;5.90;81.48;99877.38;1644926;86;21076;-74
2021/10/17 05:27:36;;;;;;;25.05;16.50;;;;;;;5.95;81.50;99873.25;1618250;86;21071;-75
2021/10/17 05:30:06;;;;;;;24.90;15.57;;;;;;;6.00;81.53;99877.88;1610150;88;21650;-74
2021/10/17 05:33:00;;;;;;;30.60;17.65;;;;;;;6.05;81.65;99872.41;1628258;87;21076;-75
2021/10/17 05:35:32;;;;;;;31.60;17.95;;;;;;;6.12;81.66;99880.31;1630986;87;21064;-74
2021/10/17 05:38:13;;;;;;;27.67;16.77;;;;;;;6.17;81.63;99880.28;1629281;87;21103;-75
2021/10/17 05:40:42;;;;;;;32.63;15.95;;;;;;;6.22;81.61;99878.89;1630681;87;21095;-76
2021/10/17 05:43:12;;;;;;;27.75;16.07;;;;;;;6.26;81.60;99881.31;1632767;87;21081;-75
2021/10/17 05:45:43;;;;;;;28.73;17.17;;;;;;;6.31;81.61;99882.66;1629912;87;21005;-75
2021/10/17 05:48:22;;;;;;;27.65;15.68;;;;;;;6.36;81.69;99883.20;1624981;87;21083;-75
2021/10/17 05:50:49;;;;;;;32.08;17.52;;;;;;;6.42;81.71;99885.34;1613488;87;21050;-75
2021/10/17 05:53:25;;;;;;;29.87;17.52;;;;;;;6.46;81.77;99883.69;1609560;86;21031;-75
2021/10/17 05:56:02;;;;;;;31.60;16.15;;;;;;;6.53;81.81;99888.84;1591221;88;21611;-78
2021/10/17 05:58:48;;;;;;;35.45;18.12;;;;;;;6.57;81.77;99887.98;1641188;86;21035;-76
2021/10/17 06:01:26;;;;;;;31.07;18.15;;;;;;;6.64;81.99;99886.84;1611377;88;21082;-75
2021/10/17 06:03:56;;;;;;;33.30;17.80;;;;;;;6.72;82.03;99893.08;1609829;87;21098;-78
2021/10/17 06:06:31;;;;;;;36.53;21.27;;;;;;;6.78;81.99;99889.22;1608001;88;22842;-75
2021/10/17 06:09:01;;;;;;;35.95;18.32;;;;;;;6.87;82.05;99894.08;1614832;86;21056;-75
2021/10/17 06:11:41;;;;;;;32.10;18.62;;;;;;;6.94;81.97;99895.95;1628765;87;21072;-75
2021/10/17 06:14:21;;;;;;;25.85;16.17;;;;;;;7.01;81.88;99895.62;1626108;87;21080;-76
2021/10/17 06:17:04;;;;;;;29.67;17.10;;;;;;;7.09;81.85;99901.02;1603273;88;22286;-75
2021/10/17 06:19:33;;;;;;;25.32;14.75;;;;;;;7.15;81.70;99898.49;1598459;88;21116;-76
2021/10/17 06:22:13;;;;;;;30.05;16.90;;;;;;;7.20;81.66;99905.88;1594004;88;21103;-77
2021/10/17 06:24:49;;;;;;;34.53;17.77;;;;;;;7.27;81.87;99904.42;1598125;88;21108;-76
2021/10/17 06:27:20;;;;;;;36.45;17.15;;;;;;;7.36;81.84;99908.73;1599790;88;21107;-75
2021/10/17 06:29:59;;;;;;;33.92;18.15;;;;;;;7.45;81.86;99910.30;1595339;87;21020;-74
2021/10/17 06:32:39;;;;;;;31.12;17.40;;;;;;;7.54;81.67;99906.38;1589850;88;21668;-76
2021/10/17 06:35:14;;;;;;;33.63;17.32;;;;;;;7.60;81.58;99905.75;1597091;87;21065;-76
2021/10/17 06:37:45;;;;;;;31.27;17.57;;;;;;;7.65;81.51;99898.84;1599437;88;21023;-76
2021/10/17 06:40:39;;;;;;;37.13;17.12;;;;;;;7.70;81.37;99904.27;1598298;88;21822;-75
2021/10/17 06:43:11;;;;;;;32.25;17.60;;;;;;;7.73;81.17;99902.31;1596005;87;27251;-75
2021/10/17 06:46:02;;;;;;;28.23;15.78;;;;;;;7.79;81.10;99898.42;1596462;88;21040;-75
2021/10/17 06:48:35;;;;;;;32.50;16.65;;;;;;;7.84;81.15;99900.83;1578613;88;21134;-76
2021/10/17 06:51:07;;;;;;;24.40;15.13;;;;;;;7.91;80.99;99898.55;1597030;88;21500;-75
2021/10/17 06:53:37;;;;;;;;;;;;;;;7.97;80.97;99900.66;1602179;87;21528;-76
2021/10/17 06:56:07;;;;;;;32.10;14.83;;;;;;;8.03;80.94;99902.25;1596009;85;20181;-75
2021/10/17 06:58:39;;;;;;;27.60;13.00;;;;;;;8.11;80.78;99903.52;1598458;88;21656;-74
2021/10/17 07:01:07;;;;;;;29.37;14.68;;;;;;;8.19;80.45;99902.86;1601421;87;21023;-75
2021/10/17 07:03:39;;;;;;;26.05;14.15;;;;;;;8.23;80.02;99909.41;1598706;88;21115;-75
2021/10/17 07:06:17;;;;;;;26.65;14.70;;;;;;;8.24;79.67;99901.42;1581369;88;21104;-73
2021/10/17 07:11:31;;;;;;;22.10;13.43;;;;;;;8.35;79.28;99906.78;1598729;88;21068;-76
2021/10/17 07:14:06;;;;;;;36.93;14.73;;;;;;;8.40;79.14;99906.70;1598261;88;21570;-76
2021/10/17 07:16:37;;;;;;;31.23;15.25;;;;;;;8.50;79.21;99905.20;1596937;88;21096;-76
2021/10/17 07:19:08;;;;;;;26.42;13.38;;;;;;;8.61;78.90;99905.08;1611876;87;21096;-74
2021/10/17 07:21:40;;;;;;;32.88;15.15;;;;;;;8.72;78.74;99909.30;1629431;87;21108;-76
2021/10/17 07:24:16;;;;;;;28.57;14.28;;;;;;;8.80;78.23;99909.20;1626711;87;21616;-75
2021/10/17 07:26:47;;;;;;;25.55;11.78;;;;;;;8.85;78.20;99911.05;1627513;87;21060;-74
2021/10/17 07:29:19;;;;;;;22.42;10.48;;;;;;;8.92;77.40;99914.78;1625485;87;21572;-75
2021/10/17 07:31:46;;;;;;;17.35;9.93;;;;;;;8.85;76.13;99914.59;1596373;88;21025;-76
2021/10/17 07:34:22;;;;;;;25.20;12.30;;;;;;;8.78;75.86;99914.72;1612322;87;21052;-75
2021/10/17 07:36:55;;;;;;;18.02;10.20;;;;;;;8.73;75.57;99908.75;1627114;87;21027;-75
2021/10/17 07:39:26;;;;;;;28.55;12.88;;;;;;;8.73;75.89;99906.00;1630120;85;21048;-76
2021/10/17 07:42:04;;;;;;;23.05;10.53;;;;;;;8.83;76.39;99911.89;1627749;87;21080;-74
2021/10/17 07:44:38;;;;;;;20.82;10.35;;;;;;;9.01;76.07;99914.34;1627992;86;21052;-73
2021/10/17 07:47:14;;;;;;;24.25;10.98;;;;;;;9.15;75.40;99910.28;1610730;85;21399;-77
2021/10/17 07:49:54;;;;;;;21.85;10.55;;;;;;;9.27;75.08;99911.72;1627143;87;21485;-76
2021/10/17 07:52:34;;;;;;;22.25;11.73;;;;;;;9.36;74.29;99914.05;1625587;87;20980;-74
2021/10/17 07:55:08;;;;;;;24.43;11.15;;;;;;;9.36;73.86;99917.63;1626442;87;21067;-75
2021/10/17 07:57:52;;;;;;;19.67;10.32;;;;;;;9.45;74.08;99920.48;1625501;87;21548;-75
2021/10/17 08:00:27;;;;;;;18.35;10.68;;;;;;;9.63;74.17;99920.72;1626332;87;21039;-76
2021/10/17 08:03:20;;;;;;;20.80;10.32;;;;;;;9.79;73.27;99920.44;1627663;87;21081;-75
2021/10/17 08:05:52;;;;;;;22.85;9.95;;;;;;;9.87;72.70;99914.21;1625670;86;21043;-77
2021/10/17 08:08:24;;;;;;;20.90;9.40;;;;;;;10.02;72.37;99915.84;1626200;87;21098;-76
2021/10/17 08:10:56;;;;;;;20.95;9.25;;;;;;;10.19;71.73;99908.88;1630993;85;21071;-74
2021/10/17 08:13:35;;;;;;;16.90;7.62;;;;;;;10.35;71.25;99908.00;1603969;88;21087;-76
2021/10/17 08:16:11;;;;;;;24.12;9.55;;;;;;;10.55;70.57;99915.02;1622817;87;21048;-75
2021/10/17 08:18:42;;;;;;;25.72;10.25;;;;;;;10.66;69.73;99911.45;1618457;87;21060;-76
2021/10/17 08:21:16;;;;;;;23.12;8.75;;;;;;;10.70;68.89;99901.45;1628980;86;21099;-76
2021/10/17 08:23:51;;;;;;;19.85;8.73;;;;;;;10.73;68.35;99903.34;1621564;87;21163;-77
2021/10/17 08:26:30;;;;;;;15.88;8.30;;;;;;;10.74;68.17;99895.31;1627000;87;21043;-75
2021/10/17 08:28:57;;;;;;;17.35;8.08;;;;;;;10.78;68.21;99901.84;1610885;87;21123;-75
2021/10/17 08:31:28;;;;;;;13.78;6.37;;;;;;;10.82;68.23;99903.66;1622171;87;21037;-74
2021/10/17 08:34:08;;;;;;;11.20;5.83;;;;;;;10.94;67.78;99894.00;1635837;86;21313;-75
2021/10/17 08:36:40;;;;;;;16.87;6.60;;;;;;;11.05;67.67;99898.12;1623967;86;21149;-75
2021/10/17 08:39:15;;;;;;;13.80;6.75;;;;;;;11.16;67.09;99897.87;1622730;87;21017;-72
2021/10/17 08:41:50;;;;;;;23.47;6.87;;;;;;;11.27;66.89;99902.02;1624888;87;21558;-75
2021/10/17 08:44:27;;;;;;;8.40;4.97;;;;;;;11.36;66.32;99896.52;1625370;87;21024;-76
2021/10/17 08:47:00;;;;;;;16.12;5.00;;;;;;;11.43;65.14;99898.27;1628336;86;21092;-74
2021/10/17 08:49:39;;;;;;;10.40;4.90;;;;;;;11.35;64.05;99897.67;1610102;87;21036;-75
2021/10/17 08:52:16;;;;;;;12.82;4.75;;;;;;;11.27;63.91;99899.26;1626127;87;21096;-77
2021/10/17 08:54:47;;;;;;;12.20;4.70;;;;;;;11.29;62.83;99893.42;1624748;87;21573;-76
2021/10/17 08:57:20;;;;;;;12.13;4.60;;;;;;;11.28;63.26;99903.63;1628569;87;21056;-75
2021/10/17 08:59:50;;;;;;;17.95;4.72;;;;;;;11.35;62.91;99901.80;1624154;87;21608;-77
2021/10/17 09:02:24;;;;;;;15.88;4.50;;;;;;;11.45;62.75;99903.47;1625619;87;21500;-75
2021/10/17 09:05:09;;;;;;;14.13;4.97;;;;;;;11.59;62.61;99908.91;1622883;86;22231;-75
2021/10/17 09:07:53;;;;;;;9.33;4.58;;;;;;;11.67;61.11;99905.37;1628221;87;21354;-78
2021/10/17 09:10:25;;;;;;;13.88;4.40;;;;;;;11.60;60.38;99906.97;1635362;85;21529;-76
2021/10/17 09:13:11;;;;;;;13.45;4.53;;;;;;;11.49;59.99;99899.52;1620129;87;21080;-75
2021/10/17 09:15:46;;;;;;;18.50;5.33;;;;;;;11.41;59.51;99901.91;1622842;87;21165;-77
2021/10/17 09:18:34;;;;;;;15.68;5.15;;;;;;;11.30;59.30;99897.80;1620923;87;21039;-76
2021/10/17 09:21:06;;;;;;;11.65;4.65;;;;;;;11.18;59.40;99900.58;1611621;87;21803;-75
2021/10/17 09:23:41;;;;;;;9.78;4.10;;;;;;;11.04;58.64;99897.06;1627752;87;21056;-77
2021/10/17 09:26:15;;;;;;;9.43;4.03;;;;;;;10.95;58.17;99896.44;1626414;87;21059;-76
2021/10/17 09:28:51;;;;;;;17.27;5.17;;;;;;;10.87;57.19;99897.20;1625844;87;21070;-75
2021/10/17 09:31:24;;;;;;;11.45;4.92;;;;;;;10.74;57.30;99889.25;1623622;87;21114;-76
2021/10/17 09:34:03;;;;;;;10.53;5.03;;;;;;;10.67;57.93;99890.23;1609642;87;21559;-76
2021/10/17 09:36:39;;;;;;;13.65;4.72;;;;;;;10.66;57.74;99881.73;1627781;87;21019;-75
2021/10/17 09:39:14;;;;;;;10.98;4.22;;;;;;;10.67;56.43;99892.44;1627177;87;21060;-77
2021/10/17 09:42:04;;;;;;;13.00;3.98;;;;;;;10.63;55.84;99884.52;1625516;87;21528;-76
2021/10/17 09:44:43;;;;;;;8.58;4.80;;;;;;;10.61;55.81;99890.11;1622851;86;21082;-76
2021/10/17 09:47:31;;;;;;;9.93;3.60;;;;;;;10.58;55.19;99884.64;1623464;87;21121;-74
2021/10/17 09:50:22;;;;;;;12.93;5.00;;;;;;;10.57;54.54;99889.91;1634267;85;21155;-75
2021/10/17 09:53:14;;;;;;;14.38;4.97;;;;;;;10.55;55.28;99882.52;1627234;87;21050;-72
2021/10/17 09:55:45;;;;;;;11.90;5.00;;;;;;;10.62;55.88;99887.59;1629064;86;21054;-76
2021/10/17 09:58:13;;;;;;;13.83;4.78;;;;;;;10.63;55.23;99888.66;1624652;87;21032;-74
2021/10/17 10:00:43;;;;;;;10.93;3.85;;;;;;;10.63;54.81;99880.39;1631535;87;21496;-73
2021/10/17 10:03:20;;;;;;;7.70;3.93;;;;;;;10.63;54.74;99894.17;1623577;86;21011;-76
2021/10/17 10:06:00;;;;;;;9.43;3.72;;;;;;;10.66;54.55;99888.03;1628099;87;21050;-75
2021/10/17 10:08:31;;;;;;;12.90;4.37;;;;;;;10.65;54.45;99882.28;1618201;86;21573;-75
2021/10/17 10:11:00;;;;;;;11.80;4.67;;;;;;;10.63;54.05;99875.47;1628474;87;21579;-74
2021/10/17 10:13:33;;;;;;;9.95;3.92;;;;;;;10.59;55.27;99886.29;1616641;86;21042;-76
2021/10/17 10:16:01;;;;;;;9.60;4.12;;;;;;;10.63;54.55;99882.36;1625145;86;21105;-76
2021/10/17 10:18:40;;;;;;;8.90;3.85;;;;;;;10.61;54.49;99879.88;1624211;86;21036;-75
2021/10/17 10:21:11;;;;;;;10.32;3.83;;;;;;;10.67;54.57;99877.28;1615599;87;21573;-75
2021/10/17 10:23:47;;;;;;;11.65;4.10;;;;;;;10.79;54.88;99873.14;1625091;87;21596;-75
2021/10/17 10:26:27;;;;;;;10.75;4.10;;;;;;;10.90;54.22;99875.89;1627510;87;21064;-75
2021/10/17 10:28:58;;;;;;;12.98;4.70;;;;;;;10.94;53.74;99878.84;1627431;87;21058;-73
2021/10/17 10:31:47;;;;;;;15.20;4.97;;;;;;;10.99;53.84;99867.69;1625571;86;21112;-72
2021/10/17 10:34:25;;;;;;;10.15;4.17;;;;;;;11.05;53.30;99868.38;1632397;87;21044;-73
2021/10/17 10:36:57;;;;;;;12.85;5.30;;;;;;;11.05;53.02;99870.55;1629105;87;20999;-74
2021/10/17 10:39:33;;;;;;;12.55;4.70;;;;;;;11.02;52.44;99864.87;1625872;87;21195;-74
2021/10/17 10:42:07;;;;;;;9.43;4.40;;;;;;;10.97;52.97;99869.94;1635544;85;21048;-74
2021/10/17 10:44:40;;;;;;;12.10;4.78;;;;;;;10.92;53.05;99865.38;1623949;87;21140;-74
2021/10/17 10:47:23;;;;;;;11.12;4.70;;;;;;;10.89;53.28;99863.25;1627101;87;21036;-75
2021/10/17 10:49:59;;;;;;;13.88;4.30;;;;;;;10.90;53.56;99865.45;1628683;87;21090;-75
2021/10/17 10:52:42;;;;;;;14.45;4.95;;;;;;;10.88;53.47;99859.42;1613250;87;21076;-74
2021/10/17 10:55:31;;;;;;;15.55;5.15;;;;;;;10.85;53.21;99855.92;1628406;87;21030;-76
2021/10/17 10:58:22;;;;;;;15.58;5.45;;;;;;;10.84;53.28;99863.37;1572730;89;21179;-75
2021/10/17 11:00:51;;;;;;;12.95;5.20;;;;;;;10.82;53.46;99863.69;1585605;87;21065;-74
2021/10/17 11:03:20;;;;;;;17.00;5.35;;;;;;;10.78;53.11;99861.29;1596346;87;21060;-75
2021/10/17 11:06:17;;;;;;;14.80;5.28;;;;;;;10.73;52.89;99857.28;1625321;87;22028;-75
2021/10/17 11:09:10;;;;;;;14.70;5.35;;;;;;;10.72;53.53;99855.66;1622482;87;21024;-74
2021/10/17 11:11:39;;;;;;;13.43;5.53;;;;;;;10.74;53.45;99858.92;1627884;87;21062;-74
2021/10/17 11:14:15;;;;;;;14.78;5.42;;;;;;;10.74;52.72;99858.92;1621354;87;21072;-75
2021/10/17 11:16:44;;;;;;;15.13;5.67;;;;;;;10.75;52.88;99855.62;1627995;87;21072;-73
2021/10/17 11:19:16;;;;;;;5.60;3.40;;;;;;;10.81;53.00;99847.46;1621177;87;21100;-74
2021/10/17 11:21:46;;;;;;;11.40;4.53;;;;;;;11.02;52.50;99845.58;1587738;87;21047;-76
2021/10/17 11:24:20;;;;;;;13.25;4.53;;;;;;;11.24;52.30;99845.28;1624506;87;24861;-75
2021/10/17 11:27:11;;;;;;;12.07;4.72;;;;;;;11.38;51.51;99841.85;1605264;87;21046;-74
2021/10/17 11:29:41;;;;;;;11.12;4.75;;;;;;;11.46;51.48;99836.70;1628073;85;21032;-72
2021/10/17 11:32:22;;;;;;;14.93;5.95;;;;;;;11.47;50.64;99835.55;1628647;87;21100;-76
2021/10/17 11:35:06;;;;;;;13.10;4.72;;;;;;;11.46;50.64;99830.63;1628737;86;21012;-75
2021/10/17 11:37:52;;;;;;;10.43;5.20;;;;;;;11.46;50.43;99832.00;1626414;87;21041;-75
2021/10/17 11:40:24;;;;;;;7.03;4.28;;;;;;;11.40;50.32;99831.32;1627218;87;21501;-75
2021/10/17 11:43:07;;;;;;;13.98;4.25;;;;;;;11.29;50.54;99834.91;1627336;87;21659;-73
2021/10/17 11:45:45;;;;;;;16.48;4.72;;;;;;;11.17;50.42;99834.13;1619202;87;21079;-73
2021/10/17 11:48:17;;;;;;;10.40;4.45;;;;;;;11.07;51.00;99827.52;1604347;87;21560;-73
2021/10/17 11:50:51;;;;;;;15.65;4.67;;;;;;;11.03;51.34;99822.38;1625569;87;21079;-75
2021/10/17 11:53:37;;;;;;;11.00;5.05;;;;;;;11.00;51.45;99823.84;1623372;87;21018;-75
2021/10/17 11:56:09;;;;;;;13.58;4.85;;;;;;;10.95;51.63;99824.76;1625821;87;21051;-74
2021/10/17 11:58:40;;;;;;;13.50;5.37;;;;;;;10.93;52.00;99819.33;1619669;87;21011;-75
2021/10/17 12:05:24;;;;;;;10.85;5.25;;;;;;;10.87;52.28;99824.14;1616776;87;21047;-75
2021/10/17 12:08:03;;;;;;;17.25;5.97;;;;;;;10.77;52.80;99824.40;1628512;87;21015;-76